Time;durP1;ratioP1;P1;durP2;ratioP2;P2;SDS_P1;SDS_P2;PMS_P1;PMS_P2;Temp;Humidity;BMP_temperature;BMP_pressure;BME280_temperature;BME280_humidity;BME280_pressure;Samples;Min_cycle;Max_cycle;Signal;HPM_P1;HPM_P2
2024/01/17 00:01:55;;;;;;;;;;;;;;;-128.00;-1.00;-1.00;100131;1285;1003398;-31
2024/01/17 00:04:20;;;;;;;93.80;28.30;;;;;;;-128.00;-1.00;-1.00;100153;1285;1004170;-32
2024/01/17 00:06:46;;;;;;;85.20;26.60;;;;;;;-128.00;-1.00;-1.00;100161;1285;1055327;-31
2024/01/17 00:09:12;;;;;;;90.90;32.60;;;;;;;-128.00;-1.00;-1.00;100034;1285;1003289;-30
2024/01/17 00:11:38;;;;;;;301.10;75.80;;;;;;;-128.00;-1.00;-1.00;100130;1286;1004221;-33
2024/01/17 00:14:03;;;;;;;376.10;79.30;;;;;;;-128.00;-1.00;-1.00;99995;1285;1045228;-31
2024/01/17 00:16:29;;;;;;;526.50;128.10;;;;;;;-128.00;-1.00;-1.00;100217;1285;1004139;-33
2024/01/17 00:18:55;;;;;;;312.40;87.50;;;;;;;-128.00;-1.00;-1.00;100122;1288;1056945;-30
2024/01/17 00:21:21;;;;;;;162.00;52.50;;;;;;;-128.00;-1.00;-1.00;100195;1285;1002742;-33
2024/01/17 00:23:46;;;;;;;168.70;53.20;;;;;;;-128.00;-1.00;-1.00;100169;1288;1004578;-30
2024/01/17 00:26:12;;;;;;;160.70;48.00;;;;;;;-128.00;-1.00;-1.00;100212;1287;1005215;-33
2024/01/17 00:28:38;;;;;;;103.60;26.10;;;;;;;-128.00;-1.00;-1.00;100208;1285;1003547;-31
2024/01/17 00:31:03;;;;;;;66.20;22.30;;;;;;;-128.00;-1.00;-1.00;100223;1283;1003689;-30
2024/01/17 00:33:29;;;;;;;80.60;21.60;;;;;;;-128.00;-1.00;-1.00;100218;1283;1038561;-32
2024/01/17 00:35:54;;;;;;;72.60;22.40;;;;;;;-128.00;-1.00;-1.00;100137;1288;1003367;-30
2024/01/17 00:38:20;;;;;;;66.70;21.70;;;;;;;-128.00;-1.00;-1.00;100248;1283;1003078;-33
2024/01/17 00:40:45;;;;;;;63.50;20.20;;;;;;;-128.00;-1.00;-1.00;100236;1288;1003706;-33
2024/01/17 00:43:11;;;;;;;40.10;14.20;;;;;;;-128.00;-1.00;-1.00;100115;1285;1002900;-34
2024/01/17 00:45:36;;;;;;;54.80;18.30;;;;;;;-128.00;-1.00;-1.00;100226;1285;1003540;-32
2024/01/17 00:48:03;;;;;;;45.10;15.90;;;;;;;-128.00;-1.00;-1.00;100285;1284;1003686;-32
2024/01/17 00:50:28;;;;;;;65.70;20.40;;;;;;;-128.00;-1.00;-1.00;100144;1284;1057996;-33
2024/01/17 00:52:54;;;;;;;54.00;16.90;;;;;;;-128.00;-1.00;-1.00;100164;1288;1003959;-32
2024/01/17 00:55:20;;;;;;;55.80;16.30;;;;;;;-128.00;-1.00;-1.00;100184;1283;1003209;-32
2024/01/17 00:57:45;;;;;;;48.80;16.10;;;;;;;-128.00;-1.00;-1.00;100126;1283;1058631;-31
2024/01/17 01:00:11;;;;;;;57.30;18.20;;;;;;;-128.00;-1.00;-1.00;100208;1285;1003633;-34
2024/01/17 01:02:37;;;;;;;;;;;;;;;-128.00;-1.00;-1.00;100076;1285;1014001;-33
2024/01/17 01:05:03;;;;;;;42.30;15.20;;;;;;;-128.00;-1.00;-1.00;100131;1286;1003985;-31
2024/01/17 01:07:28;;;;;;;;;;;;;;;-128.00;-1.00;-1.00;100251;1286;1004413;-33
2024/01/17 01:09:54;;;;;;;68.10;22.40;;;;;;;-128.00;-1.00;-1.00;100240;1283;1002981;-34
2024/01/17 01:12:19;;;;;;;65.50;19.10;;;;;;;-128.00;-1.00;-1.00;100143;1288;1004503;-32
2024/01/17 01:14:45;;;;;;;65.00;20.30;;;;;;;-128.00;-1.00;-1.00;100220;1284;1003534;-30
2024/01/17 01:17:10;;;;;;;68.50;20.40;;;;;;;-128.00;-1.00;-1.00;100177;1288;1045800;-31
2024/01/17 01:19:36;;;;;;;60.70;19.20;;;;;;;-128.00;-1.00;-1.00;100278;1285;1002814;-32
2024/01/17 01:22:02;;;;;;;68.20;19.00;;;;;;;-128.00;-1.00;-1.00;100192;1284;1004630;-33
2024/01/17 01:24:27;;;;;;;99.60;24.50;;;;;;;-128.00;-1.00;-1.00;100266;1283;1016357;-34
2024/01/17 01:26:53;;;;;;;106.00;26.80;;;;;;;-128.00;-1.00;-1.00;100197;1288;1003094;-34
2024/01/17 01:29:19;;;;;;;117.20;28.30;;;;;;;-128.00;-1.00;-1.00;100220;1284;1004892;-31
2024/01/17 01:31:44;;;;;;;111.90;26.30;;;;;;;-128.00;-1.00;-1.00;100180;1283;1055364;-30
2024/01/17 01:34:10;;;;;;;100.30;24.70;;;;;;;-128.00;-1.00;-1.00;100190;1284;1002842;-32
2024/01/17 01:36:35;;;;;;;126.70;30.70;;;;;;;-128.00;-1.00;-1.00;99885;1289;1040277;-29
2024/01/17 01:39:01;;;;;;;103.70;27.40;;;;;;;-128.00;-1.00;-1.00;100228;1285;1004341;-32
2024/01/17 01:41:27;;;;;;;;;;;;;;;-128.00;-1.00;-1.00;100192;1285;1054673;-32
2024/01/17 01:43:52;;;;;;;72.90;19.00;;;;;;;-128.00;-1.00;-1.00;100161;1284;1005054;-33
2024/01/17 01:46:20;;;;;;;63.90;19.30;;;;;;;-128.00;-1.00;-1.00;100181;1285;1003015;-32
2024/01/17 01:48:46;;;;;;;60.20;18.90;;;;;;;-128.00;-1.00;-1.00;100266;1285;1003107;-30
2024/01/17 01:51:12;;;;;;;72.20;21.10;;;;;;;-128.00;-1.00;-1.00;100249;1288;1003503;-33
2024/01/17 02:33:44;;;;;;;55.60;17.90;;;;;;;-8.74;100.00;98529.79;103657;1284;613720;-30
2024/01/17 02:36:10;;;;;;;;;;;;;;;-8.52;100.00;98527.84;103654;1280;97183;-34
2024/01/17 02:38:35;;;;;;;54.00;17.30;;;;;;;-8.46;100.00;98532.82;103747;1282;59365;-30
2024/01/17 02:41:01;;;;;;;51.10;17.70;;;;;;;-8.47;100.00;98530.63;103667;1282;59370;-33
2024/01/17 02:43:28;;;;;;;64.90;20.40;;;;;;;-8.44;100.00;98529.23;103665;1282;60057;-33
2024/01/17 02:45:54;;;;;;;73.10;20.60;;;;;;;-8.41;100.00;98529.78;103495;1282;59465;-33
2024/01/17 02:48:20;;;;;;;65.80;20.20;;;;;;;-8.34;100.00;98532.39;103727;1285;59353;-29
2024/01/17 02:50:45;;;;;;;63.10;19.70;;;;;;;-8.27;100.00;98531.41;103742;1285;59250;-33
2024/01/17 02:53:11;;;;;;;61.10;19.60;;;;;;;-8.27;100.00;98534.86;103706;1283;59319;-33
2024/01/17 02:55:36;;;;;;;65.60;19.90;;;;;;;-8.26;100.00;98533.42;103709;1283;72822;-29
2024/01/17 02:58:02;;;;;;;63.50;19.60;;;;;;;-8.17;100.00;98534.42;103734;1285;59730;-31
2024/01/17 03:00:28;;;;;;;;;;;;;;;-8.16;100.00;98538.66;103733;1283;59653;-31
2024/01/17 03:02:53;;;;;;;52.90;17.00;;;;;;;-8.12;100.00;98538.61;103643;1283;59762;-30
2024/01/17 03:05:19;;;;;;;53.60;16.90;;;;;;;-8.15;100.00;98542.08;103780;1285;59769;-31
2024/01/17 03:07:44;;;;;;;62.10;20.70;;;;;;;-8.12;100.00;98541.90;103741;1285;59804;-33
2024/01/17 03:10:12;;;;;;;58.70;18.80;;;;;;;-8.12;100.00;98540.35;103722;1285;59996;-29
2024/01/17 03:12:39;;;;;;;54.50;18.10;;;;;;;-8.15;100.00;98541.77;103613;1285;72423;-32
2024/01/17 03:15:06;;;;;;;54.90;17.90;;;;;;;-8.10;100.00;98539.50;103721;1285;59763;-32
2024/01/17 03:17:34;;;;;;;68.90;20.90;;;;;;;-8.08;100.00;98538.52;103753;1282;59669;-33
2024/01/17 03:20:00;;;;;;;62.60;20.60;;;;;;;-8.09;100.00;98540.47;103753;1285;60221;-31
2024/01/17 03:22:26;;;;;;;54.50;18.70;;;;;;;-8.03;100.00;98540.58;103716;1285;59750;-30
2024/01/17 03:24:51;;;;;;;58.30;18.60;;;;;;;-8.04;100.00;98535.11;103860;1285;59754;-33
2024/01/17 03:27:17;;;;;;;66.20;20.00;;;;;;;-7.99;100.00;98535.14;103792;1295;60142;-33
2024/01/17 03:29:42;;;;;;;56.50;19.80;;;;;;;-7.98;100.00;98532.78;103896;1285;59790;-33
2024/01/17 03:32:08;;;;;;;70.50;20.90;;;;;;;-8.02;100.00;98532.89;103943;1285;60857;-34
2024/01/17 03:34:34;;;;;;;54.20;17.50;;;;;;;-8.11;100.00;98532.59;103837;1287;60776;-32
2024/01/17 03:37:00;;;;;;;49.00;15.00;;;;;;;-8.23;100.00;98536.19;103816;1285;68062;-33
2024/01/17 03:39:26;;;;;;;45.80;16.70;;;;;;;-8.30;100.00;98528.66;103749;1285;60865;-33
2024/01/17 03:41:51;;;;;;;50.90;16.90;;;;;;;-8.30;100.00;98529.02;103838;1299;61215;-30
2024/01/17 03:44:17;;;;;;;52.20;17.30;;;;;;;-8.36;100.00;98525.37;103918;1285;60862;-33
2024/01/17 03:46:43;;;;;;;45.70;16.30;;;;;;;-8.48;100.00;98518.40;103865;1301;62044;-32
2024/01/17 03:49:08;;;;;;;45.60;17.30;;;;;;;-8.57;100.00;98513.74;103787;1288;60798;-29
2024/01/17 03:51:34;;;;;;;49.90;18.60;;;;;;;-8.63;100.00;98517.77;103814;1288;60999;-33
2024/01/17 03:53:59;;;;;;;51.50;18.10;;;;;;;-8.69;100.00;98517.48;103747;1299;60949;-33
2024/01/17 03:56:25;;;;;;;56.00;17.80;;;;;;;-8.74;100.00;98513.66;103796;1299;60908;-34
2024/01/17 03:58:51;;;;;;;54.40;17.40;;;;;;;-8.78;100.00;98508.16;103890;1293;60820;-30
2024/01/17 04:01:16;;;;;;;;;;;;;;;-8.81;100.00;98502.43;103824;1285;60750;-31
2024/01/17 04:03:43;;;;;;;50.30;16.40;;;;;;;-8.83;100.00;98497.38;103868;1289;60786;-30
2024/01/17 04:06:09;;;;;;;56.00;17.20;;;;;;;-8.87;100.00;98493.84;103809;1285;60706;-33
2024/01/17 04:08:35;;;;;;;46.90;17.80;;;;;;;-128.00;-1.00;-1.00;100286;1285;1003779;-32
2024/01/17 04:11:01;;;;;;;67.60;21.50;;;;;;;-128.00;-1.00;-1.00;100230;1282;1003233;-30
2024/01/17 04:13:26;;;;;;;137.70;33.90;;;;;;;-128.00;-1.00;-1.00;100387;1282;1003223;-31
2024/01/17 04:15:52;;;;;;;261.80;56.30;;;;;;;-128.00;-1.00;-1.00;100293;1282;1055119;-31
2024/01/17 04:18:17;;;;;;;535.50;121.80;;;;;;;-128.00;-1.00;-1.00;100207;1285;1003456;-31
2024/01/17 04:20:43;;;;;;;282.70;86.90;;;;;;;-128.00;-1.00;-1.00;100341;1285;1002154;-37
2024/01/17 04:23:09;;;;;;;549.50;176.00;;;;;;;-128.00;-1.00;-1.00;100308;1285;1002836;-30
2024/01/17 04:25:35;;;;;;;112.40;36.20;;;;;;;-128.00;-1.00;-1.00;100291;1283;1003502;-32
2024/01/17 04:28:08;;;;;;;64.50;21.00;;;;;;;-128.00;-1.00;-1.00;100300;1282;1004174;-30
2024/01/17 04:30:34;;;;;;;51.90;18.70;;;;;;;-128.00;-1.00;-1.00;100330;1282;1057736;-32
2024/01/17 04:33:00;;;;;;;303.80;65.70;;;;;;;-128.00;-1.00;-1.00;100277;1285;1003235;-35
2024/01/17 04:35:26;;;;;;;405.80;88.50;;;;;;;-128.00;-1.00;-1.00;100315;1285;1003606;-33
2024/01/17 04:37:53;;;;;;;;;;;;;;;-128.00;-1.00;-1.00;100301;1282;1004339;-34
2024/01/17 04:40:18;;;;;;;257.30;74.70;;;;;;;-128.00;-1.00;-1.00;100340;1288;1003145;-31
2024/01/17 04:42:48;;;;;;;467.80;134.50;;;;;;;-128.00;-1.00;-1.00;100329;1285;1004047;-33
2024/01/17 04:45:14;;;;;;;173.80;40.80;;;;;;;-128.00;-1.00;-1.00;100263;1283;1012954;-30
2024/01/17 04:47:40;;;;;;;82.80;22.00;;;;;;;-128.00;-1.00;-1.00;100302;1282;1003775;-31
2024/01/17 04:50:06;;;;;;;70.50;22.10;;;;;;;-128.00;-1.00;-1.00;100411;1283;1002885;-33
2024/01/17 04:52:31;;;;;;;;;;;;;;;-128.00;-1.00;-1.00;100280;1283;1055488;-29
2024/01/17 04:54:57;;;;;;;47.50;16.70;;;;;;;-128.00;-1.00;-1.00;100285;1288;1002778;-31
2024/01/17 04:57:23;;;;;;;48.30;15.80;;;;;;;-128.00;-1.00;-1.00;100287;1285;1003435;-30
2024/01/17 04:59:48;;;;;;;49.70;17.70;;;;;;;-128.00;-1.00;-1.00;100268;1288;1044675;-34
2024/01/17 05:02:14;;;;;;;55.10;19.90;;;;;;;-128.00;-1.00;-1.00;100324;1285;1002919;-32
2024/01/17 05:04:39;;;;;;;46.80;16.30;;;;;;;-128.00;-1.00;-1.00;100297;1286;1002797;-29
2024/01/17 05:07:05;;;;;;;47.00;17.50;;;;;;;-128.00;-1.00;-1.00;100282;1281;1003663;-30
2024/01/17 05:09:32;;;;;;;40.00;15.00;;;;;;;-128.00;-1.00;-1.00;100353;1285;1003489;-33
2024/01/17 05:11:57;;;;;;;49.20;17.20;;;;;;;-128.00;-1.00;-1.00;100074;1282;1057292;-32
2024/01/17 05:14:23;;;;;;;284.80;52.90;;;;;;;-128.00;-1.00;-1.00;100355;1282;1003262;-35
2024/01/17 05:16:48;;;;;;;320.10;60.90;;;;;;;-128.00;-1.00;-1.00;100284;1288;1004165;-34
2024/01/17 05:19:16;;;;;;;363.20;80.00;;;;;;;-128.00;-1.00;-1.00;100261;1285;1038679;-31
2024/01/17 05:21:41;;;;;;;533.30;125.10;;;;;;;-128.00;-1.00;-1.00;100309;1285;1003104;-32
2024/01/17 05:24:07;;;;;;;76.70;25.70;;;;;;;-128.00;-1.00;-1.00;100257;1283;1002593;-31
2024/01/17 05:26:32;;;;;;;102.70;32.60;;;;;;;-128.00;-1.00;-1.00;100221;1282;1058130;-30
2024/01/17 05:28:58;;;;;;;84.50;29.80;;;;;;;-128.00;-1.00;-1.00;100368;1283;1002984;-34
2024/01/17 05:31:23;;;;;;;78.70;27.10;;;;;;;-128.00;-1.00;-1.00;100237;1282;1045230;-30
2024/01/17 05:33:49;;;;;;;89.00;29.00;;;;;;;-128.00;-1.00;-1.00;100313;1282;1004367;-30
2024/01/17 05:36:15;;;;;;;172.90;44.60;;;;;;;-128.00;-1.00;-1.00;100216;1283;1058510;-32
2024/01/17 05:38:40;;;;;;;92.10;27.50;;;;;;;-128.00;-1.00;-1.00;100273;1285;1002946;-34
2024/01/17 05:41:06;;;;;;;50.40;19.40;;;;;;;-128.00;-1.00;-1.00;100346;1288;1002627;-29
2024/01/17 05:43:31;;;;;;;57.10;20.70;;;;;;;-128.00;-1.00;-1.00;100323;1282;1058775;-33
2024/01/17 05:45:57;;;;;;;225.60;54.60;;;;;;;-128.00;-1.00;-1.00;100313;1286;1003537;-33
2024/01/17 05:48:24;;;;;;;80.20;24.70;;;;;;;-128.00;-1.00;-1.00;100305;1283;1002720;-33
2024/01/17 05:50:50;;;;;;;150.30;34.50;;;;;;;-128.00;-1.00;-1.00;100435;1287;1038418;-31
2024/01/17 05:53:15;;;;;;;625.10;140.80;;;;;;;-128.00;-1.00;-1.00;100289;1285;1003111;-33
2024/01/17 05:55:42;;;;;;;277.50;69.90;;;;;;;-128.00;-1.00;-1.00;100325;1283;1003392;-33
2024/01/17 05:58:09;;;;;;;146.90;42.50;;;;;;;-128.00;-1.00;-1.00;100318;1285;1058185;-33
2024/01/17 06:00:35;;;;;;;59.70;18.50;;;;;;;-128.00;-1.00;-1.00;100360;1282;1004008;-31
2024/01/17 06:03:01;;;;;;;88.20;27.20;;;;;;;-128.00;-1.00;-1.00;100277;1285;1004217;-31
2024/01/17 06:05:26;;;;;;;68.50;20.80;;;;;;;-128.00;-1.00;-1.00;100341;1283;1003526;-30
2024/01/17 06:07:52;;;;;;;75.70;23.10;;;;;;;-128.00;-1.00;-1.00;100223;1282;1003229;-31
2024/01/17 06:10:18;;;;;;;80.30;27.60;;;;;;;-128.00;-1.00;-1.00;100220;1286;1005278;-33
2024/01/17 06:12:43;;;;;;;58.40;20.40;;;;;;;-128.00;-1.00;-1.00;100250;1283;1003610;-30
2024/01/17 06:15:10;;;;;;;53.30;20.30;;;;;;;-128.00;-1.00;-1.00;100207;1283;1046253;-31
2024/01/17 06:17:36;;;;;;;57.40;21.10;;;;;;;-128.00;-1.00;-1.00;100406;1283;1002893;-30
2024/01/17 06:20:01;;;;;;;;;;;;;;;-128.00;-1.00;-1.00;100388;1282;1003782;-35
2024/01/17 06:22:27;;;;;;;84.10;27.40;;;;;;;-128.00;-1.00;-1.00;100265;1282;1002713;-31
2024/01/17 06:24:52;;;;;;;80.90;25.90;;;;;;;-128.00;-1.00;-1.00;100345;1289;1003398;-31
2024/01/17 06:27:18;;;;;;;72.80;23.40;;;;;;;-128.00;-1.00;-1.00;100329;1283;1002642;-31
2024/01/17 06:29:45;;;;;;;72.00;24.60;;;;;;;-128.00;-1.00;-1.00;100396;1283;1002311;-34
2024/01/17 06:32:11;;;;;;;74.50;24.90;;;;;;;-128.00;-1.00;-1.00;100270;1287;1058229;-34
2024/01/17 06:34:36;;;;;;;62.20;22.80;;;;;;;-128.00;-1.00;-1.00;100317;1286;1005161;-28
2024/01/17 06:37:03;;;;;;;57.60;22.00;;;;;;;-128.00;-1.00;-1.00;100321;1285;1003890;-33
2024/01/17 06:39:30;;;;;;;59.10;19.00;;;;;;;-128.00;-1.00;-1.00;100360;1283;1058973;-33
2024/01/17 06:41:57;;;;;;;57.80;20.20;;;;;;;-128.00;-1.00;-1.00;100264;1283;1002851;-30
2024/01/17 06:44:22;;;;;;;44.80;18.30;;;;;;;-128.00;-1.00;-1.00;100269;1286;1003444;-30
2024/01/17 06:46:48;;;;;;;45.70;14.30;;;;;;;-128.00;-1.00;-1.00;100278;1282;1002606;-30
2024/01/17 06:49:14;;;;;;;53.50;18.10;;;;;;;-128.00;-1.00;-1.00;100305;1288;1004472;-34
2024/01/17 06:51:39;;;;;;;48.70;18.00;;;;;;;-128.00;-1.00;-1.00;100335;1283;1060280;-33
2024/01/17 06:54:05;;;;;;;46.00;17.20;;;;;;;-128.00;-1.00;-1.00;100296;1285;1002972;-29
2024/01/17 06:56:32;;;;;;;53.60;18.50;;;;;;;-128.00;-1.00;-1.00;100318;1282;1002668;-30
2024/01/17 06:58:58;;;;;;;60.40;20.40;;;;;;;-128.00;-1.00;-1.00;100291;1287;1039139;-32
2024/01/17 07:01:24;;;;;;;;;;;;;;;-128.00;-1.00;-1.00;100288;1288;1002821;-32
2024/01/17 07:03:50;;;;;;;75.80;23.20;;;;;;;-128.00;-1.00;-1.00;100329;1283;1003924;-35
2024/01/17 07:06:15;;;;;;;;;;;;;;;-128.00;-1.00;-1.00;100377;1285;1058829;-33
2024/01/17 07:08:41;;;;;;;45.30;16.20;;;;;;;-128.00;-1.00;-1.00;100286;1283;1003523;-32
2024/01/17 07:11:10;;;;;;;50.50;18.20;;;;;;;-128.00;-1.00;-1.00;100167;1288;1002538;-30
2024/01/17 07:13:37;;;;;;;42.90;17.10;;;;;;;-128.00;-1.00;-1.00;100309;1283;1060041;-32
2024/01/17 07:16:04;;;;;;;47.70;17.90;;;;;;;-128.00;-1.00;-1.00;100278;1282;1004757;-31
2024/01/17 07:18:29;;;;;;;46.50;17.70;;;;;;;-128.00;-1.00;-1.00;100256;1283;1002972;-33
2024/01/17 07:20:55;;;;;;;51.50;17.70;;;;;;;-128.00;-1.00;-1.00;100218;1283;1002919;-31
2024/01/17 07:23:20;;;;;;;42.10;17.00;;;;;;;-128.00;-1.00;-1.00;100269;1285;1046692;-30
2024/01/17 07:25:46;;;;;;;52.10;17.30;;;;;;;-128.00;-1.00;-1.00;100265;1283;1002751;-33
2024/01/17 07:28:13;;;;;;;50.90;17.90;;;;;;;-128.00;-1.00;-1.00;100289;1286;1003028;-31
2024/01/17 07:30:39;;;;;;;70.70;22.40;;;;;;;-128.00;-1.00;-1.00;100217;1282;1012947;-29
2024/01/17 07:33:04;;;;;;;63.90;26.00;;;;;;;-128.00;-1.00;-1.00;100284;1286;1003613;-33
2024/01/17 07:35:30;;;;;;;79.10;27.90;;;;;;;-128.00;-1.00;-1.00;100332;1282;1002988;-31
2024/01/17 07:37:58;;;;;;;66.60;24.00;;;;;;;-128.00;-1.00;-1.00;100217;1282;1056462;-31
2024/01/17 07:40:24;;;;;;;69.20;23.40;;;;;;;-128.00;-1.00;-1.00;100198;1287;1004730;-30
2024/01/17 07:42:51;;;;;;;59.30;21.60;;;;;;;-128.00;-1.00;-1.00;100306;1285;1002702;-33
2024/01/17 07:45:17;;;;;;;47.60;17.80;;;;;;;-128.00;-1.00;-1.00;100259;1285;1003968;-33
2024/01/17 07:47:43;;;;;;;42.00;16.30;;;;;;;-128.00;-1.00;-1.00;100295;1286;1002975;-33
2024/01/17 07:50:09;;;;;;;49.00;15.20;;;;;;;-128.00;-1.00;-1.00;100255;1282;1002508;-31
2024/01/17 07:52:35;;;;;;;46.60;16.80;;;;;;;-128.00;-1.00;-1.00;100368;1283;1003361;-29
2024/01/17 07:55:02;;;;;;;56.70;17.90;;;;;;;-128.00;-1.00;-1.00;100287;1281;1003126;-33
2024/01/17 07:57:27;;;;;;;53.10;16.30;;;;;;;-128.00;-1.00;-1.00;100331;1286;1038823;-33
2024/01/17 07:59:53;;;;;;;47.90;15.60;;;;;;;-128.00;-1.00;-1.00;100234;1286;1003053;-33
2024/01/17 08:02:18;;;;;;;56.00;15.80;;;;;;;-128.00;-1.00;-1.00;100265;1282;1056353;-40
2024/01/17 08:04:45;;;;;;;49.40;17.00;;;;;;;-128.00;-1.00;-1.00;100300;1282;1002914;-32
2024/01/17 08:07:11;;;;;;;;;;;;;;;-128.00;-1.00;-1.00;100389;1282;1003053;-33
2024/01/17 08:09:36;;;;;;;52.00;20.00;;;;;;;-128.00;-1.00;-1.00;100313;1286;1046618;-31
2024/01/17 08:12:03;;;;;;;107.30;37.70;;;;;;;-128.00;-1.00;-1.00;100348;1283;1004015;-32
2024/01/17 08:14:29;;;;;;;124.20;49.00;;;;;;;-128.00;-1.00;-1.00;100288;1281;1003857;-32
2024/01/17 08:16:55;;;;;;;130.10;52.40;;;;;;;-128.00;-1.00;-1.00;100251;1282;1003691;-31
2024/01/17 08:19:21;;;;;;;154.70;64.50;;;;;;;-128.00;-1.00;-1.00;100379;1282;1003051;-33
2024/01/17 08:21:47;;;;;;;100.40;44.00;;;;;;;-128.00;-1.00;-1.00;100254;1287;1002823;-31
2024/01/17 08:24:14;;;;;;;216.90;73.70;;;;;;;-128.00;-1.00;-1.00;100174;1288;1060786;-42
2024/01/17 08:26:39;;;;;;;307.60;97.70;;;;;;;-128.00;-1.00;-1.00;100343;1286;1003433;-32
2024/01/17 08:29:08;;;;;;;162.60;54.20;;;;;;;-128.00;-1.00;-1.00;100247;1283;1003834;-35
2024/01/17 08:31:34;;;;;;;99.20;37.70;;;;;;;-128.00;-1.00;-1.00;100265;1285;1039144;-31
2024/01/17 08:34:00;;;;;;;78.90;35.20;;;;;;;-128.00;-1.00;-1.00;100310;1281;1004888;-31
2024/01/17 08:36:28;;;;;;;48.70;19.10;;;;;;;-128.00;-1.00;-1.00;100261;1283;1002980;-37
2024/01/17 08:38:54;;;;;;;38.90;16.20;;;;;;;-128.00;-1.00;-1.00;100215;1288;1003190;-31
2024/01/17 08:41:20;;;;;;;43.60;15.10;;;;;;;-128.00;-1.00;-1.00;100246;1283;1002826;-33
2024/01/17 08:43:45;;;;;;;49.90;16.40;;;;;;;-128.00;-1.00;-1.00;100306;1283;1039348;-31
2024/01/17 08:46:14;;;;;;;41.50;15.20;;;;;;;-128.00;-1.00;-1.00;100253;1283;1003347;-31
2024/01/17 08:48:40;;;;;;;39.40;15.40;;;;;;;-128.00;-1.00;-1.00;100092;1283;1003625;-33
2024/01/17 08:51:07;;;;;;;41.90;15.80;;;;;;;-128.00;-1.00;-1.00;100298;1283;1003169;-34
2024/01/17 08:53:33;;;;;;;42.10;16.70;;;;;;;-128.00;-1.00;-1.00;100305;1286;1002769;-34
2024/01/17 08:56:00;;;;;;;41.40;16.30;;;;;;;-128.00;-1.00;-1.00;100337;1285;1002850;-35
2024/01/17 08:58:26;;;;;;;49.30;18.10;;;;;;;-128.00;-1.00;-1.00;100312;1282;1002694;-31
2024/01/17 09:00:52;;;;;;;62.70;25.30;;;;;;;-128.00;-1.00;-1.00;100302;1282;1004322;-32
2024/01/17 09:03:18;;;;;;;84.10;31.70;;;;;;;-128.00;-1.00;-1.00;100333;1286;1005031;-33
2024/01/17 09:05:44;;;;;;;55.70;23.80;;;;;;;-128.00;-1.00;-1.00;100321;1282;1058679;-32
2024/01/17 09:08:09;;;;;;;;;;;;;;;-128.00;-1.00;-1.00;100311;1282;1003894;-33
2024/01/17 09:10:35;;;;;;;76.00;27.80;;;;;;;-128.00;-1.00;-1.00;100258;1282;1005186;-30
2024/01/17 09:13:01;;;;;;;65.50;24.40;;;;;;;-128.00;-1.00;-1.00;100378;1283;1003285;-35
2024/01/17 09:15:27;;;;;;;57.00;23.30;;;;;;;-128.00;-1.00;-1.00;100301;1282;1002879;-33
2024/01/17 09:17:52;;;;;;;76.70;25.90;;;;;;;-128.00;-1.00;-1.00;100299;1282;1005008;-32
2024/01/17 09:20:18;;;;;;;55.50;21.50;;;;;;;-128.00;-1.00;-1.00;100418;1282;1002665;-34
2024/01/17 09:22:43;;;;;;;46.10;19.80;;;;;;;-128.00;-1.00;-1.00;100330;1285;1045507;-33
2024/01/17 09:25:09;;;;;;;47.30;18.50;;;;;;;-128.00;-1.00;-1.00;100347;1286;1002937;-31
2024/01/17 09:27:36;;;;;;;;;;;;;;;-128.00;-1.00;-1.00;100335;1282;1058218;-31
2024/01/17 09:30:02;;;;;;;64.60;23.30;;;;;;;-128.00;-1.00;-1.00;100315;1285;1002677;-32
2024/01/17 09:32:28;;;;;;;60.30;26.20;;;;;;;-128.00;-1.00;-1.00;100375;1282;1003471;-33
2024/01/17 09:34:54;;;;;;;48.40;21.90;;;;;;;-128.00;-1.00;-1.00;100212;1286;1003594;-33
2024/01/17 09:37:19;;;;;;;47.80;19.60;;;;;;;-128.00;-1.00;-1.00;100333;1284;1004053;-33
2024/01/17 09:39:47;;;;;;;38.30;16.50;;;;;;;-128.00;-1.00;-1.00;100288;1282;1058702;-30
2024/01/17 09:42:13;;;;;;;40.60;16.60;;;;;;;-128.00;-1.00;-1.00;100313;1282;1003656;-33
2024/01/17 09:44:39;;;;;;;38.20;16.80;;;;;;;-128.00;-1.00;-1.00;100254;1289;1002725;-33
2024/01/17 09:47:05;;;;;;;38.30;14.70;;;;;;;-128.00;-1.00;-1.00;100290;1282;1004697;-31
2024/01/17 09:49:31;;;;;;;;;;;;;;;-128.00;-1.00;-1.00;100372;1282;1002741;-33
2024/01/17 09:51:57;;;;;;;104.50;36.20;;;;;;;-128.00;-1.00;-1.00;100292;1285;1059306;-33
2024/01/17 09:54:26;;;;;;;;;;;;;;;-128.00;-1.00;-1.00;100305;1282;1003042;-31
2024/01/17 09:56:53;;;;;;;40.90;20.10;;;;;;;-128.00;-1.00;-1.00;100209;1286;1039972;-31
2024/01/17 09:59:21;;;;;;;46.90;22.60;;;;;;;-128.00;-1.00;-1.00;100347;1282;1003112;-33
2024/01/17 10:01:47;;;;;;;48.70;22.20;;;;;;;-128.00;-1.00;-1.00;100188;1282;1003237;-34
2024/01/17 10:04:13;;;;;;;50.00;24.80;;;;;;;-128.00;-1.00;-1.00;100326;1282;1002335;-30
2024/01/17 10:06:43;;;;;;;61.70;29.60;;;;;;;-128.00;-1.00;-1.00;100253;1285;1002952;-35
2024/01/17 10:09:09;;;;;;;49.50;23.70;;;;;;;-128.00;-1.00;-1.00;100269;1285;1012482;-35
2024/01/17 10:11:35;;;;;;;45.90;23.50;;;;;;;-128.00;-1.00;-1.00;100282;1283;1004686;-34
2024/01/17 10:14:01;;;;;;;43.60;20.00;;;;;;;-128.00;-1.00;-1.00;100230;1282;1002865;-34
2024/01/17 10:16:28;;;;;;;44.80;19.90;;;;;;;-128.00;-1.00;-1.00;100405;1282;1004792;-36
2024/01/17 10:18:54;;;;;;;126.60;34.50;;;;;;;-128.00;-1.00;-1.00;100195;1283;1004354;-35
2024/01/17 10:21:19;;;;;;;;;;;;;;;-128.00;-1.00;-1.00;100327;1286;1003469;-36
2024/01/17 10:23:45;;;;;;;58.50;19.80;;;;;;;-128.00;-1.00;-1.00;100392;1282;1003059;-36
2024/01/17 10:26:11;;;;;;;68.90;22.60;;;;;;;-128.00;-1.00;-1.00;100317;1285;1046190;-35
2024/01/17 10:28:37;;;;;;;146.00;35.60;;;;;;;-128.00;-1.00;-1.00;100305;1282;1003404;-32
2024/01/17 10:31:04;;;;;;;66.40;25.10;;;;;;;-128.00;-1.00;-1.00;100361;1282;1003439;-35
2024/01/17 10:33:32;;;;;;;35.40;17.30;;;;;;;-128.00;-1.00;-1.00;100292;1282;1013686;-35
2024/01/17 10:35:59;;;;;;;222.00;79.60;;;;;;;-128.00;-1.00;-1.00;100342;1282;1002935;-35
2024/01/17 10:38:31;;;;;;;163.00;60.00;;;;;;;-128.00;-1.00;-1.00;100331;1283;1003181;-35
2024/01/17 10:41:08;;;;;;;110.00;38.50;;;;;;;-128.00;-1.00;-1.00;100266;1282;1060585;-35
2024/01/17 10:43:55;;;;;;;109.00;42.60;;;;;;;-128.00;-1.00;-1.00;100312;1282;1056478;-35
2024/01/17 10:46:21;;;;;;;149.80;55.30;;;;;;;-128.00;-1.00;-1.00;100241;1283;1058033;-31
2024/01/17 10:48:47;;;;;;;114.90;50.00;;;;;;;-128.00;-1.00;-1.00;100174;1282;1003414;-34
2024/01/17 10:51:18;;;;;;;50.00;22.10;;;;;;;-128.00;-1.00;-1.00;100345;1282;1002718;-31
2024/01/17 10:53:46;;;;;;;157.10;43.70;;;;;;;-128.00;-1.00;-1.00;100262;1283;1046001;-30
2024/01/17 10:56:11;;;;;;;98.10;29.00;;;;;;;-128.00;-1.00;-1.00;100282;1283;1002843;-31
2024/01/17 10:58:37;;;;;;;133.10;36.90;;;;;;;-128.00;-1.00;-1.00;100313;1285;1003426;-31
2024/01/17 11:01:05;;;;;;;82.90;26.50;;;;;;;-128.00;-1.00;-1.00;100283;1282;1012176;-33
2024/01/17 11:03:33;;;;;;;69.70;24.70;;;;;;;-128.00;-1.00;-1.00;100197;1285;1039279;-34
2024/01/17 11:05:59;;;;;;;114.90;34.80;;;;;;;-128.00;-1.00;-1.00;100260;1285;1003472;-31
2024/01/17 11:08:25;;;;;;;90.50;36.10;;;;;;;-128.00;-1.00;-1.00;100269;1285;1003475;-31
2024/01/17 11:10:50;;;;;;;67.20;30.00;;;;;;;-128.00;-1.00;-1.00;100225;1281;1003757;-30
2024/01/17 11:13:17;;;;;;;160.10;38.40;;;;;;;-128.00;-1.00;-1.00;100323;1281;1002518;-34
2024/01/17 11:15:43;;;;;;;65.40;23.80;;;;;;;-128.00;-1.00;-1.00;100294;1285;1003760;-34
2024/01/17 11:18:10;;;;;;;80.90;25.60;;;;;;;-128.00;-1.00;-1.00;100320;1282;1003594;-35
2024/01/17 11:20:36;;;;;;;53.90;21.60;;;;;;;-128.00;-1.00;-1.00;100343;1283;1004156;-31
2024/01/17 11:23:03;;;;;;;46.40;19.70;;;;;;;-128.00;-1.00;-1.00;100306;1282;1003608;-34
2024/01/17 11:25:33;;;;;;;38.40;17.00;;;;;;;-128.00;-1.00;-1.00;100246;1283;1003826;-31
2024/01/17 11:28:21;;;;;;;62.40;21.80;;;;;;;-128.00;-1.00;-1.00;100258;1282;1012774;-32
2024/01/17 11:31:11;;;;;;;48.20;18.80;;;;;;;-128.00;-1.00;-1.00;100252;1283;1038112;-31
2024/01/17 11:33:38;;;;;;;42.00;16.90;;;;;;;-128.00;-1.00;-1.00;100274;1282;1046505;-32
2024/01/17 11:36:05;;;;;;;40.40;18.10;;;;;;;-128.00;-1.00;-1.00;100415;1281;1002948;-33
2024/01/17 11:38:32;;;;;;;33.00;17.40;;;;;;;-128.00;-1.00;-1.00;100390;1282;1003041;-31
2024/01/17 11:41:05;;;;;;;44.50;18.00;;;;;;;-128.00;-1.00;-1.00;100229;1282;1003396;-33